Time;durP1;ratioP1;P1;durP2;ratioP2;P2;SDS_P1;SDS_P2;PMS_P1;PMS_P2;Temp;Humidity;BMP_temperature;BMP_pressure;BME280_temperature;BME280_humidity;BME280_pressure;Samples;Min_cycle;Max_cycle;Signal;HPM_P1;HPM_P2
2022/03/16 00:00:30;;;;;;;;;39.33;32.67;;;;;8.70;39.89;100135.06;6321797;20;2860675;-43
2022/03/16 00:02:59;;;;;;;;;34.50;31.00;;;;;8.59;40.25;100127.53;6323298;20;2861819;-45
2022/03/16 00:05:29;;;;;;;;;37.33;31.00;;;;;8.51;40.43;100119.84;6289785;20;3605576;-46
2022/03/16 00:07:58;;;;;;;;;44.00;36.00;;;;;8.54;40.20;100109.00;6328231;20;3601254;-51
2022/03/16 00:10:26;;;;;;;;;40.50;36.50;;;;;8.64;40.32;100104.09;6289332;20;2856505;-50
2022/03/16 00:12:56;;;;;;;;;39.67;31.67;;;;;8.55;40.42;100099.16;6292769;20;2873239;-48
2022/03/16 00:15:26;;;;;;;;;40.33;33.00;;;;;8.54;40.38;100087.59;6324061;20;3612748;-51
2022/03/16 00:17:55;;;;;;;;;35.67;31.67;;;;;8.61;40.87;100080.16;6320344;20;3608677;-45
2022/03/16 00:20:24;;;;;;;;;41.00;34.00;;;;;8.56;40.56;100063.44;6321110;20;2856686;-48
2022/03/16 00:22:54;;;;;;;;;34.00;28.67;;;;;8.58;40.53;100061.53;6291851;20;2871273;-46
2022/03/16 00:25:24;;;;;;;;;39.50;36.00;;;;;8.53;40.69;100047.50;6321754;20;2859659;-46
2022/03/16 00:27:53;;;;;;;;;40.33;35.33;;;;;8.52;40.63;100038.63;6288651;20;2859770;-45
2022/03/16 00:30:22;;;;;;;;;40.67;34.00;;;;;8.59;40.80;100022.28;6323257;20;3614840;-45
2022/03/16 00:32:50;;;;;;;;;32.00;30.00;;;;;8.60;40.42;100003.47;6289448;20;2857579;-47
2022/03/16 00:35:20;;;;;;;;;39.67;36.00;;;;;8.72;40.07;99997.53;6288334;20;2855646;-45
2022/03/16 00:37:50;;;;;;;;;43.00;33.67;;;;;8.77;40.11;99991.94;6318744;20;3628406;-48
2022/03/16 00:40:19;;;;;;;;;43.33;31.00;;;;;8.60;40.51;99973.16;6317913;20;3624276;-45
2022/03/16 00:42:49;;;;;;;;;38.00;34.00;;;;;8.78;39.88;99975.78;6320289;20;2858797;-47
2022/03/16 00:45:18;;;;;;;;;39.33;34.67;;;;;8.96;40.53;99960.63;6323761;20;3589805;-46
2022/03/16 00:47:46;;;;;;;;;40.00;35.50;;;;;8.66;41.35;99963.03;6290550;20;2854428;-47
2022/03/16 00:50:17;;;;;;;;;38.33;34.33;;;;;8.76;40.75;99969.63;6288955;20;2864050;-46
2022/03/16 00:52:46;;;;;;;;;46.33;36.33;;;;;8.25;41.86;99978.38;6323362;20;3611736;-47
2022/03/16 00:55:14;;;;;;;;;39.00;36.50;;;;;8.47;41.67;99973.75;6290971;20;2849283;-48
2022/03/16 00:57:44;;;;;;;;;37.67;34.00;;;;;8.47;42.69;99972.88;6287482;20;2852424;-47
2022/03/16 01:00:13;;;;;;;;;44.00;37.00;;;;;8.71;43.55;99970.81;6319689;20;2861849;-47
2022/03/16 01:02:43;;;;;;;;;42.33;36.33;;;;;8.64;42.50;99972.09;6287334;20;2851368;-45
2022/03/16 01:05:12;;;;;;;;;43.00;36.33;;;;;8.56;43.13;99973.31;6319738;20;3605473;-46
2022/03/16 01:07:41;;;;;;;;;52.00;35.33;;;;;8.77;42.91;99970.53;6285332;20;3630447;-45
2022/03/16 01:10:10;;;;;;;;;41.00;34.00;;;;;8.80;43.31;99967.69;6316042;20;3606531;-45
2022/03/16 01:12:40;;;;;;;;;39.00;34.00;;;;;8.88;43.27;99962.81;6281205;20;3594009;-50
2022/03/16 01:15:10;;;;;;;;;44.33;39.00;;;;;8.56;44.95;99957.25;6316186;20;2855551;-51
2022/03/16 01:17:39;;;;;;;;;37.00;34.33;;;;;8.65;46.03;99955.06;6311600;20;2860804;-49
2022/03/16 01:20:08;;;;;;;;;38.00;33.67;;;;;8.44;46.60;99952.50;6316527;20;3593988;-49
2022/03/16 01:22:38;;;;;;;;;40.00;33.67;;;;;8.63;46.87;99946.25;6282603;20;2865952;-46
2022/03/16 01:25:08;;;;;;;;;52.00;37.33;;;;;8.73;47.33;99952.88;6315314;20;3622081;-45
2022/03/16 01:27:38;;;;;;;;;44.67;35.67;;;;;8.48;47.56;99951.41;6315844;20;3606501;-45
2022/03/16 01:30:08;;;;;;;;;44.33;36.67;;;;;8.41;49.27;99944.63;6317964;20;3626284;-46
2022/03/16 01:32:37;;;;;;;;;41.00;36.00;;;;;8.59;48.00;99947.34;6282899;20;2869214;-45
2022/03/16 01:35:08;;;;;;;;;35.00;32.50;;;;;8.73;48.37;99952.88;6316095;20;2855490;-47
2022/03/16 01:37:39;;;;;;;;;37.67;31.67;;;;;8.94;47.78;99942.91;6280632;20;3597112;-45
2022/03/16 01:40:09;;;;;;;;;46.00;38.67;;;;;8.60;50.67;99946.41;6316579;20;3619024;-45
2022/03/16 01:42:40;;;;;;;;;36.50;36.00;;;;;8.70;50.85;99945.00;6284187;20;2842950;-45
2022/03/16 01:45:10;;;;;;;;;41.00;35.67;;;;;8.69;53.37;99941.47;6281522;20;2855601;-45
2022/03/16 01:47:40;;;;;;;;;42.33;35.67;;;;;8.82;54.93;99933.69;6314742;20;3607533;-49
2022/03/16 01:50:09;;;;;;;;;41.00;37.00;;;;;8.80;54.29;99943.59;6314217;20;2848182;-51
2022/03/16 01:52:40;;;;;;;;;43.00;37.50;;;;;8.63;57.10;99952.44;6284086;20;2866936;-48
2022/03/16 01:55:09;;;;;;;;;45.33;39.33;;;;;8.34;57.53;99949.34;6283516;20;2867999;-48
2022/03/16 01:57:43;;;;;;;;;46.00;38.67;;;;;8.25;57.91;99954.28;6314197;20;3613793;-46
2022/03/16 02:00:14;;;;;;;;;48.67;40.00;;;;;8.30;58.01;99963.84;6279367;20;2878546;-51
2022/03/16 02:02:44;;;;;;;;;42.00;38.00;;;;;8.16;58.63;99979.66;6314714;20;2864912;-45
2022/03/16 02:05:13;;;;;;;;;50.33;40.00;;;;;8.21;59.91;99979.44;6283868;20;2869073;-45
2022/03/16 02:07:44;;;;;;;;;49.33;37.00;;;;;8.26;59.42;99980.94;6311418;20;3625249;-46
2022/03/16 02:10:15;;;;;;;;;42.67;36.00;;;;;8.35;59.28;99987.69;6313927;20;2862752;-47
2022/03/16 02:12:48;;;;;;;;;42.67;37.67;;;;;8.63;58.98;99989.06;6314015;20;2869091;-45
2022/03/16 02:15:21;;;;;;;;;43.33;38.33;;;;;8.50;59.17;99972.72;6315651;20;3602337;-45
2022/03/16 02:17:54;;;;;;;;;46.33;36.33;;;;;8.19;59.57;99978.63;6313877;20;3607745;-46
2022/03/16 02:20:27;;;;;;;;;45.00;39.00;;;;;8.09;60.11;99981.75;6311847;20;2857590;-46
2022/03/16 02:23:06;;;;;;;;;47.00;42.00;;;;;8.05;63.79;99980.16;6314607;20;2863835;-45
2022/03/16 02:25:51;;;;;;;;;55.00;42.00;;;;;8.21;64.55;99982.13;6283389;20;2867021;-48
2022/03/16 02:28:25;;;;;;;;;52.33;41.33;;;;;8.10;63.24;99980.81;6282332;20;2881586;-47
2022/03/16 02:30:54;;;;;;;;;50.00;42.00;;;;;8.09;65.37;99988.91;6312543;20;2879439;-45
2022/03/16 02:33:23;;;;;;;;;60.00;44.50;;;;;8.33;63.52;99976.19;6281546;20;2859750;-51
2022/03/16 02:35:52;;;;;;;;;55.50;43.00;;;;;8.08;65.24;99964.00;6282564;20;2871112;-47
2022/03/16 02:38:21;;;;;;;;;50.50;43.00;;;;;7.90;68.65;99965.72;6277635;20;2878552;-45
2022/03/16 02:40:49;;;;;;;;;58.00;45.00;;;;;8.06;69.25;99968.53;6281574;20;2521117;-46
2022/03/16 02:43:19;;;;;;;;;50.67;41.00;;;;;8.09;65.64;99968.38;6282731;20;2884714;-44
2022/03/16 02:45:48;;;;;;;;;49.50;42.00;;;;;7.92;68.12;99965.63;6312345;20;2853371;-45
2022/03/16 02:48:17;;;;;;;;;60.33;47.67;;;;;7.78;71.05;99962.72;6282471;20;2869190;-43
2022/03/16 02:50:46;;;;;;;;;54.00;43.50;;;;;7.50;75.95;99963.94;6311176;20;2857556;-43
2022/03/16 02:53:15;;;;;;;;;29.00;24.00;;;;;7.84;70.98;99951.75;6282872;20;2835720;-41
2022/03/16 02:55:50;;;;;;;;;57.50;45.00;;;;;7.64;71.35;99945.50;6280494;20;2495065;-41
2022/03/16 02:58:19;;;;;;;;;54.50;44.50;;;;;7.46;74.90;99936.53;6282170;20;2841019;-42
2022/03/16 03:00:48;;;;;;;;;48.00;40.00;;;;;7.62;69.64;99942.03;6278207;20;2872108;-42
2022/03/16 03:03:18;;;;;;;;;47.67;39.00;;;;;7.99;66.69;99935.00;6281995;20;3604402;-40
2022/03/16 03:05:47;;;;;;;;;57.33;42.33;;;;;8.00;66.29;99926.03;6309489;20;2858994;-41
2022/03/16 03:08:16;;;;;;;;;46.50;40.00;;;;;7.64;67.90;99931.28;6311348;20;2864888;-42
2022/03/16 03:10:45;;;;;;;;;46.50;41.50;;;;;7.64;69.00;99926.81;6277127;20;2855501;-42
2022/03/16 03:13:15;;;;;;;;;21.20;14.00;;;;;7.70;70.01;99901.59;6303351;20;2810707;-42
2022/03/16 03:15:45;;;;;;;;;55.33;41.33;;;;;7.16;73.80;99903.16;6278136;20;3630486;-41
2022/03/16 03:18:14;;;;;;;;;54.00;41.67;;;;;7.56;70.12;99893.38;6310752;20;2872191;-42
2022/03/16 03:20:44;;;;;;;;;56.00;41.33;;;;;7.24;73.17;99888.53;6309009;20;2881641;-47
2022/03/16 03:23:13;;;;;;;;;54.00;45.00;;;;;7.42;71.50;99877.94;6311561;20;2855481;-46
2022/03/16 03:25:40;;;;;;;;;56.00;44.00;;;;;7.62;70.78;99875.22;6277891;20;2495117;-46
2022/03/16 03:28:09;;;;;;;;;53.00;43.00;;;;;7.41;72.84;99866.41;6282375;20;2862824;-44
2022/03/16 03:30:38;;;;;;;;;59.00;45.50;;;;;7.49;73.30;99866.06;6278714;20;2863783;-43
2022/03/16 03:33:08;;;;;;;;;61.67;48.00;;;;;7.13;75.85;99866.78;6282500;20;2877325;-47
2022/03/16 03:35:37;;;;;;;;;66.33;47.00;;;;;7.19;75.93;99866.53;6313676;20;3636853;-44
2022/03/16 03:38:07;;;;;;;;;63.00;51.00;;;;;7.41;75.34;99857.53;6310935;20;3621229;-43
2022/03/16 03:40:36;;;;;;;;;67.67;52.33;;;;;7.34;76.01;99856.94;6308825;20;2870095;-43
2022/03/16 03:43:05;;;;;;;;;62.00;48.00;;;;;7.29;76.89;99848.25;6309766;20;2864126;-44
2022/03/16 03:45:34;;;;;;;;;57.00;46.00;;;;;7.19;77.16;99844.28;6280922;20;2810708;-42
2022/03/16 03:48:03;;;;;;;;;63.00;47.50;;;;;7.10;76.73;99829.53;6278866;20;2861814;-43
2022/03/16 03:50:31;;;;;;;;;57.00;46.00;;;;;7.06;78.21;99822.63;6275002;20;2499224;-41
2022/03/16 03:53:01;;;;;;;;;64.67;48.33;;;;;7.20;78.18;99822.84;6280214;20;2873310;-43
2022/03/16 03:55:30;;;;;;;;;58.33;47.00;;;;;7.22;77.57;99822.78;6309304;20;3633547;-41
2022/03/16 03:58:00;;;;;;;;;64.33;52.00;;;;;7.12;78.13;99819.66;6311850;20;2879599;-42
2022/03/16 04:00:29;;;;;;;;;70.00;51.67;;;;;7.13;78.28;99821.38;6310636;20;2872242;-43
2022/03/16 04:02:59;;;;;;;;;72.67;57.00;;;;;7.18;77.43;99811.34;6312633;20;3626263;-40
2022/03/16 04:05:29;;;;;;;;;83.00;64.00;;;;;6.95;77.95;99803.53;6310785;20;3649223;-42
2022/03/16 04:07:59;;;;;;;;;85.00;63.67;;;;;6.72;78.64;99789.41;6312473;20;3648284;-41
2022/03/16 04:10:29;;;;;;;;;66.50;53.50;;;;;7.05;77.76;99799.50;6310102;20;2867017;-43
2022/03/16 04:12:58;;;;;;;;;64.00;52.50;;;;;6.99;78.29;99797.97;6280217;20;2858569;-41
2022/03/16 04:15:27;;;;;;;;;76.00;56.00;;;;;7.07;75.92;99794.97;6279989;20;2873233;-42
2022/03/16 04:17:57;;;;;;;;;66.33;50.67;;;;;7.08;74.15;99783.34;6310850;20;2877372;-42
2022/03/16 04:20:27;;;;;;;;;54.50;45.00;;;;;7.02;73.55;99776.47;6306875;20;2852454;-42
2022/03/16 04:22:56;;;;;;;;;59.00;45.00;;;;;7.23;72.78;99779.13;6280202;20;2870114;-42
2022/03/16 04:25:24;;;;;;;;;55.00;45.50;;;;;7.23;72.19;99774.63;6309232;20;2497162;-42
2022/03/16 04:27:52;;;;;;;;;60.00;46.00;;;;;6.95;73.87;99759.03;6276368;20;2500284;-44
2022/03/16 04:30:21;;;;;;;;;59.00;45.00;;;;;6.88;75.08;99749.56;6274808;20;2869049;-42
2022/03/16 04:32:52;;;;;;;;;66.00;48.67;;;;;6.81;76.39;99750.78;6277737;20;2867099;-41
2022/03/16 04:35:22;;;;;;;;;62.67;48.00;;;;;6.77;76.88;99755.41;6311845;20;2874270;-42
2022/03/16 04:37:52;;;;;;;;;70.67;52.00;;;;;6.66;75.94;99746.13;6312963;20;2888863;-43
2022/03/16 04:40:20;;;;;;;;;48.50;43.50;;;;;6.81;74.65;99751.63;6311675;20;2467984;-43
2022/03/16 04:42:49;;;;;;;;;62.50;48.00;;;;;6.97;75.68;99762.47;6285562;20;2864866;-44
2022/03/16 04:45:18;;;;;;;;;61.50;47.50;;;;;7.10;73.85;99756.59;6284379;20;2868004;-41
2022/03/16 04:47:47;;;;;;;;;63.00;49.50;;;;;7.13;76.16;99770.66;6287071;20;2866942;-42
2022/03/16 04:50:16;;;;;;;;;60.67;49.33;;;;;6.79;75.16;99777.53;6284831;20;2866018;-41
2022/03/16 04:52:48;;;;;;;;;65.33;47.00;;;;;6.93;77.52;99789.41;6314847;20;3644007;-41
2022/03/16 04:55:17;;;;;;;;;66.00;51.33;;;;;6.77;77.11;99783.88;6315373;20;2863896;-40
2022/03/16 04:57:47;;;;;;;;;63.00;53.00;;;;;6.94;77.00;99761.75;6316534;20;2866046;-41
2022/03/16 05:00:17;;;;;;;;;68.33;51.67;;;;;6.68;79.18;99746.94;6281754;20;2880679;-43
2022/03/16 05:02:46;;;;;;;;;66.00;53.50;;;;;6.66;80.92;99739.00;6316283;20;2858641;-40
2022/03/16 05:05:15;;;;;;;;;67.00;52.67;;;;;6.44;80.40;99746.22;6285560;20;2876350;-42
2022/03/16 05:07:44;;;;;;;;;68.00;51.50;;;;;6.84;78.65;99749.78;6313262;20;2864825;-46
2022/03/16 05:10:13;;;;;;;;;70.00;52.50;;;;;6.54;79.95;99748.41;6279154;20;2499369;-42
2022/03/16 05:12:44;;;;;;;;;58.50;49.00;;;;;6.87;78.80;99741.63;6284653;20;2852324;-44
2022/03/16 05:15:18;;;;;;;;;68.67;50.33;;;;;6.69;80.01;99740.63;6285320;20;2879412;-42
2022/03/16 05:17:48;;;;;;;;;65.33;55.33;;;;;6.67;78.98;99738.06;6317066;20;2876395;-42
2022/03/16 05:20:18;;;;;;;;;67.33;52.00;;;;;6.47;78.17;99743.41;6315782;20;2867987;-43
2022/03/16 05:22:52;;;;;;;;;63.00;52.00;;;;;6.69;79.80;99743.31;6317331;20;2872137;-42
2022/03/16 05:25:30;;;;;;;;;62.00;50.50;;;;;6.57;80.09;99742.94;6315735;20;2854409;-43
2022/03/16 05:28:00;;;;;;;;;67.33;52.00;;;;;6.17;81.37;99750.94;6281740;20;2869192;-43
2022/03/16 05:30:30;;;;;;;;;71.00;55.00;;;;;6.01;82.18;99738.25;6311972;20;3632543;-42
2022/03/16 05:33:00;;;;;;;;;67.00;55.00;;;;;6.26;81.25;99748.72;6314795;20;2877419;-45
2022/03/16 05:35:31;;;;;;;;;61.00;51.50;;;;;6.23;81.89;99743.53;6282866;20;2857536;-45
2022/03/16 05:38:00;;;;;;;;;68.00;54.00;;;;;6.36;81.03;99747.41;6283373;20;2872161;-42
2022/03/16 05:40:29;;;;;;;;;72.67;53.00;;;;;6.44;80.99;99740.88;6278041;20;3645005;-43
2022/03/16 05:43:02;;;;;;;;;66.67;49.67;;;;;6.66;80.69;99748.78;6313957;20;3618964;-47
2022/03/16 05:45:32;;;;;;;;;67.00;52.67;;;;;6.56;78.88;99764.34;6313424;20;3604499;-48
2022/03/16 05:48:04;;;;;;;;;66.00;53.00;;;;;6.35;80.34;99775.00;6315912;20;2872270;-44
2022/03/16 05:50:33;;;;;;;;;74.00;57.33;;;;;6.33;79.91;99781.34;6312465;20;3633687;-47
2022/03/16 05:53:03;;;;;;;;;79.00;57.33;;;;;6.68;79.20;99794.94;6316133;20;3652410;-44
2022/03/16 05:55:33;;;;;;;;;73.00;56.33;;;;;6.97;78.90;99793.66;6315329;20;2883698;-47
2022/03/16 05:58:03;;;;;;;;;76.33;55.67;;;;;7.00;79.07;99791.72;6315244;20;3641882;-47
2022/03/16 06:00:33;;;;;;;;;69.33;54.67;;;;;6.96;79.08;99808.81;6313192;20;2869019;-43
2022/03/16 06:03:03;;;;;;;;;66.33;51.67;;;;;7.28;78.04;99802.94;6316551;20;2880540;-44
2022/03/16 06:05:32;;;;;;;;;65.67;52.00;;;;;7.19;77.41;99826.47;6314703;20;3628338;-43
2022/03/16 06:08:02;;;;;;;;;66.50;54.50;;;;;6.63;79.54;99868.97;6313818;20;2872253;-44
2022/03/16 06:10:31;;;;;;;;;74.00;55.67;;;;;6.38;81.32;99892.22;6282514;20;3643960;-43
2022/03/16 06:13:04;;;;;;;;;69.00;54.00;;;;;6.33;83.59;99872.00;6313419;20;2874380;-42
2022/03/16 06:15:43;;;;;;;;;69.33;55.00;;;;;6.15;87.74;99874.47;6279183;20;2874318;-44
2022/03/16 06:18:12;;;;;;;;;64.50;50.50;;;;;6.16;87.17;99875.34;6313657;20;2861730;-42
2022/03/16 06:20:42;;;;;;;;;66.00;52.33;;;;;6.35;86.91;99865.69;6278637;20;3628400;-43
2022/03/16 06:23:12;;;;;;;;;68.33;55.33;;;;;6.23;87.93;99854.66;6314594;20;2869108;-44
2022/03/16 06:25:41;;;;;;;;;63.00;50.00;;;;;6.19;88.18;99864.56;6315102;20;2856502;-45
2022/03/16 06:28:10;;;;;;;;;61.00;51.00;;;;;6.14;88.66;99871.91;6283069;20;2839869;-44
2022/03/16 06:30:39;;;;;;;;;68.50;52.50;;;;;5.97;89.76;99855.69;6281513;20;2883601;-43
2022/03/16 06:33:08;;;;;;;;;72.67;57.67;;;;;5.99;90.89;99851.19;6281410;20;3631535;-42
2022/03/16 06:35:38;;;;;;;;;65.00;50.00;;;;;6.00;90.83;99844.91;6311896;20;2871264;-42
2022/03/16 06:38:08;;;;;;;;;70.67;55.67;;;;;6.20;89.77;99850.31;6313632;20;3633695;-43
2022/03/16 06:40:36;;;;;;;;;68.00;54.00;;;;;5.79;92.20;99851.94;6309614;20;2867996;-42
2022/03/16 06:43:05;;;;;;;;;64.50;51.50;;;;;6.06;90.90;99852.69;6281916;20;2867946;-43
2022/03/16 06:45:35;;;;;;;;;70.67;53.67;;;;;6.13;91.68;99851.47;6281346;20;3642962;-45
2022/03/16 06:48:04;;;;;;;;;73.33;55.67;;;;;5.91;92.87;99844.31;6312038;20;2878467;-44
2022/03/16 06:50:34;;;;;;;;;68.50;53.50;;;;;6.44;90.93;99850.22;6310837;20;2872115;-42
2022/03/16 06:53:04;;;;;;;;;73.33;53.00;;;;;6.49;88.45;99843.75;6283104;20;3655442;-43
2022/03/16 06:55:33;;;;;;;;;94.67;77.67;;;;;5.96;92.14;99832.66;6313267;20;3659587;-42
2022/03/16 06:58:03;;;;;;;;;72.33;55.00;;;;;6.15;93.18;99846.97;6313843;20;2882690;-42
2022/03/16 07:00:33;;;;;;;;;74.33;59.00;;;;;6.86;90.16;99838.66;6310005;20;3627393;-43
2022/03/16 07:03:05;;;;;;;;;65.50;53.00;;;;;6.63;89.54;99839.63;6315055;20;2869059;-43
2022/03/16 07:05:41;;;;;;;;;68.33;54.33;;;;;6.82;89.28;99843.25;6282487;20;2874274;-47
2022/03/16 07:08:13;;;;;;;;;69.00;55.50;;;;;6.72;87.21;99853.47;6313640;20;2879465;-44
2022/03/16 07:10:45;;;;;;;;;75.33;57.00;;;;;6.73;88.83;99839.16;6278687;20;3634678;-41
2022/03/16 07:13:15;;;;;;;;;72.00;56.33;;;;;7.12;87.34;99851.69;6310290;20;2866102;-43
2022/03/16 07:15:45;;;;;;;;;73.67;59.33;;;;;6.49;88.09;99845.56;6313502;20;2876344;-43
2022/03/16 07:18:16;;;;;;;;;71.00;53.67;;;;;6.63;88.86;99851.16;6313600;20;3640825;-43
2022/03/16 07:20:44;;;;;;;;;65.00;52.50;;;;;6.22;89.36;99845.78;6310032;20;2862745;-43
2022/03/16 07:23:17;;;;;;;;;69.67;55.00;;;;;6.56;90.39;99853.25;6281923;20;2875284;-42
2022/03/16 07:25:49;;;;;;;;;81.33;59.00;;;;;6.31;91.01;99848.06;6314027;20;3659588;-44
2022/03/16 07:28:20;;;;;;;;;72.00;58.50;;;;;6.16;92.50;99848.69;6279983;20;2860782;-44
2022/03/16 07:30:50;;;;;;;;;87.33;64.00;;;;;6.66;90.45;99840.38;6280104;20;3665854;-42
2022/03/16 07:33:20;;;;;;;;;87.67;65.67;;;;;6.34;91.81;99837.25;6312971;20;3646088;-43
2022/03/16 07:35:51;;;;;;;;;72.67;55.33;;;;;6.65;91.51;99841.31;6311595;20;3635615;-43
2022/03/16 07:38:20;;;;;;;;;69.67;54.33;;;;;6.37;91.44;99839.81;6313279;20;2887772;-43
2022/03/16 07:40:50;;;;;;;;;71.33;57.00;;;;;6.39;90.20;99842.41;6312607;20;2880447;-42
2022/03/16 07:43:19;;;;;;;;;36.33;26.67;;;;;6.37;91.76;99842.50;6313395;20;3564840;-43
2022/03/16 07:45:48;;;;;;;;;74.67;55.33;;;;;6.34;90.36;99844.41;6311227;20;3642959;-45
2022/03/16 07:48:18;;;;;;;;;64.00;49.00;;;;;6.43;90.35;99853.84;6314462;20;3651279;-44
2022/03/16 07:50:47;;;;;;;;;65.50;52.50;;;;;6.60;90.20;99849.50;6311779;20;2867985;-44
2022/03/16 07:53:17;;;;;;;;;68.33;52.67;;;;;6.47;90.30;99855.44;6281198;20;2874202;-44
2022/03/16 07:55:48;;;;;;;;;69.33;55.00;;;;;6.55;91.26;99853.28;6312179;20;2866979;-44
2022/03/16 07:58:17;;;;;;;;;65.67;51.33;;;;;6.81;90.66;99853.03;6313166;20;2876385;-44
2022/03/16 08:00:47;;;;;;;;;71.67;55.00;;;;;6.27;91.11;99856.28;6306789;20;3633616;-43
2022/03/16 08:03:17;;;;;;;;;67.33;50.67;;;;;6.62;90.16;99865.44;6312206;20;2864853;-44
2022/03/16 08:05:47;;;;;;;;;70.33;54.33;;;;;6.72;89.21;99864.13;6311588;20;2881579;-43
2022/03/16 08:08:18;;;;;;;;;79.33;59.67;;;;;6.85;88.94;99869.81;6310741;20;3650274;-42
2022/03/16 08:10:47;;;;;;;;;71.67;55.33;;;;;6.60;89.08;99876.16;6308291;20;3622125;-42
2022/03/16 08:13:17;;;;;;;;;66.33;46.67;;;;;6.68;87.88;99883.00;6316521;20;3638954;-42
2022/03/16 08:15:47;;;;;;;;;77.67;58.00;;;;;6.47;89.50;99890.09;6314044;20;3648195;-41
2022/03/16 08:18:17;;;;;;;;;73.00;56.33;;;;;6.33;89.68;99883.53;6315582;20;2867026;-42
2022/03/16 08:20:46;;;;;;;;;71.67;56.00;;;;;6.52;89.41;99882.78;6316141;20;2863886;-41
2022/03/16 08:23:16;;;;;;;;;68.67;53.33;;;;;6.37;89.55;99887.81;6316814;20;2881609;-43
2022/03/16 08:25:57;;;;;;;;;75.67;58.00;;;;;6.63;89.02;99880.50;6316396;20;3638740;-42
2022/03/16 08:28:27;;;;;;;;;82.67;63.00;;;;;6.41;90.03;99895.69;6316204;20;3649309;-43
2022/03/16 08:30:58;;;;;;;;;74.00;56.33;;;;;6.54;89.96;99899.59;6316136;20;3641917;-42
2022/03/16 08:33:28;;;;;;;;;69.33;53.33;;;;;6.27;89.18;99894.47;6318150;20;3637813;-47
2022/03/16 08:35:57;;;;;;;;;75.00;59.67;;;;;6.48;90.77;99897.19;6316419;20;2877382;-49
2022/03/16 08:38:30;;;;;;;;;70.33;55.33;;;;;6.69;90.94;99890.06;6317159;20;2873347;-47
2022/03/16 08:40:59;;;;;;;;;67.67;54.00;;;;;6.81;90.07;99905.56;6316911;20;2883691;-47
2022/03/16 08:43:28;;;;;;;;;62.50;48.00;;;;;6.76;87.15;99912.88;6313815;20;2872189;-46
2022/03/16 08:45:59;;;;;;;;;79.00;62.67;;;;;6.79;88.01;99907.41;6285003;20;3631493;-49
2022/03/16 08:48:29;;;;;;;;;73.33;55.00;;;;;6.93;86.43;99912.19;6317828;20;3649222;-45
2022/03/16 08:50:58;;;;;;;;;62.00;50.00;;;;;6.73;86.71;99913.03;6316781;20;2850287;-45
2022/03/16 08:53:27;;;;;;;;;70.33;52.00;;;;;6.46;87.48;99915.91;6287387;20;2881647;-45
2022/03/16 08:55:58;;;;;;;;;78.00;61.00;;;;;6.78;87.81;99914.56;6315753;20;3627328;-46
2022/03/16 08:58:27;;;;;;;;;71.33;56.00;;;;;7.02;86.00;99914.44;6315740;20;2883800;-45
2022/03/16 09:00:57;;;;;;;;;74.00;56.00;;;;;7.26;85.11;99918.69;6315901;20;3629516;-46
2022/03/16 09:03:26;;;;;;;;;62.50;50.00;;;;;6.86;85.85;99924.03;6313811;20;2871056;-46
2022/03/16 09:05:55;;;;;;;;;68.00;54.50;;;;;6.74;86.11;99918.31;6283597;20;2862741;-47
2022/03/16 09:08:24;;;;;;;;;68.00;54.00;;;;;6.70;87.26;99923.81;6284008;20;2865104;-46
2022/03/16 09:10:53;;;;;;;;;75.50;60.00;;;;;6.90;85.97;99933.63;6285610;20;2874598;-47
2022/03/16 09:13:24;;;;;;;;;68.67;51.67;;;;;6.20;87.57;99927.63;6284244;20;3613866;-47
2022/03/16 09:16:01;;;;;;;;;66.00;52.50;;;;;6.57;86.41;99929.66;6316127;20;2854400;-48
2022/03/16 09:18:31;;;;;;;;;63.00;51.00;;;;;7.04;85.46;99928.59;6284279;20;2870151;-49
2022/03/16 09:21:01;;;;;;;;;68.67;54.33;;;;;7.01;84.50;99934.94;6282077;20;2883590;-45
2022/03/16 09:23:31;;;;;;;;;71.33;56.33;;;;;7.39;84.27;99936.84;6310521;20;2877362;-47
2022/03/16 09:26:02;;;;;;;;;67.00;53.00;;;;;7.70;81.90;99939.88;6315031;20;2856635;-47
2022/03/16 09:28:32;;;;;;;;;66.00;49.00;;;;;7.74;82.87;99942.41;6286058;20;2882604;-48
2022/03/16 09:31:01;;;;;;;;;68.00;51.67;;;;;7.25;83.63;99938.34;6313623;20;2882686;-46
2022/03/16 09:33:30;;;;;;;;;63.00;49.00;;;;;7.19;83.31;99945.75;6317211;20;2876317;-45
2022/03/16 09:36:03;;;;;;;;;67.33;50.67;;;;;7.01;82.33;99944.75;6282185;20;2878558;-46
2022/03/16 09:38:32;;;;;;;;;66.00;54.67;;;;;6.82;83.65;99948.19;6312547;20;2875280;-49
2022/03/16 09:41:03;;;;;;;;;69.67;53.00;;;;;6.82;83.89;99950.88;6315820;20;3638797;-49
2022/03/16 09:43:35;;;;;;;;;67.00;53.00;;;;;6.91;82.56;99954.09;6309165;20;2500284;-46
2022/03/16 09:46:12;;;;;;;;;59.00;47.50;;;;;6.85;83.34;99957.88;6284461;20;2873158;-50
2022/03/16 09:48:42;;;;;;;;;69.67;50.00;;;;;6.83;83.30;99959.75;6283207;20;3650232;-46
2022/03/16 09:51:12;;;;;;;;;72.33;55.33;;;;;6.97;82.45;99962.69;6316074;20;3639833;-47
2022/03/16 09:53:41;;;;;;;;;63.50;52.50;;;;;7.26;82.52;99966.75;6312971;20;2855448;-50
2022/03/16 09:56:10;;;;;;;;;67.67;52.67;;;;;7.53;80.98;99971.84;6284546;20;2891034;-47
2022/03/16 09:58:43;;;;;;;;;79.50;61.00;;;;;7.52;80.55;99974.59;6315433;20;2841023;-46
2022/03/16 10:01:13;;;;;;;;;69.67;56.00;;;;;6.94;81.55;99969.97;6313747;20;2873264;-46
2022/03/16 10:03:48;;;;;;;;;73.67;56.00;;;;;7.03;82.93;99969.59;6314071;20;3639832;-49
2022/03/16 10:06:24;;;;;;;;;66.00;51.00;;;;;7.19;82.60;99972.47;6313648;20;2879495;-50
2022/03/16 10:14:30;;;;;;;;;73.33;56.33;;;;;7.43;82.86;99978.53;6279772;20;3636715;-46
2022/03/16 10:19:57;;;;;;;;;63.33;50.00;;;;;7.30;81.21;99983.53;6313676;20;2869095;-45
2022/03/16 10:22:32;;;;;;;;;65.33;50.00;;;;;6.91;81.35;99986.09;6310843;20;2886822;-45
2022/03/16 10:25:06;;;;;;;;;68.67;52.33;;;;;7.35;81.08;99992.22;6315270;20;2880481;-47
2022/03/16 10:27:37;;;;;;;;;71.67;54.33;;;;;7.39;80.29;99988.47;6314865;20;3637709;-45
2022/03/16 10:30:08;;;;;;;;;63.33;49.67;;;;;7.75;79.24;99994.94;6314094;20;2871076;-49
2022/03/16 10:32:53;;;;;;;;;67.67;52.33;;;;;7.66;79.52;99997.09;6314854;20;3628672;-47
2022/03/16 10:35:24;;;;;;;;;70.00;53.33;;;;;7.42;80.98;99999.03;6313506;20;3642928;-46
2022/03/16 10:38:11;;;;;;;;;58.50;47.00;;;;;7.69;80.29;100007.66;6312887;20;2500321;-45
2022/03/16 10:40:40;;;;;;;;;65.67;52.33;;;;;7.86;79.63;99995.31;6276884;20;2877449;-45
2022/03/16 10:49:10;;;;;;;;;90.33;67.33;;;;;8.24;80.37;99998.00;6283143;20;3666885;-45
2022/03/16 10:51:41;;;;;;;;;80.67;63.33;;;;;8.06;81.74;100000.63;6282653;20;3628382;-46
2022/03/16 10:54:28;;;;;;;;;91.00;76.67;;;;;7.87;82.27;99995.25;6313028;20;3674199;-46
2022/03/16 10:57:01;;;;;;;;;78.67;61.33;;;;;7.86;82.70;99998.84;6279074;20;3633734;-48
2022/03/16 10:59:34;;;;;;;;;77.00;57.00;;;;;8.27;81.67;100003.25;6311058;20;3651339;-49
2022/03/16 11:02:14;;;;;;;;;78.33;59.33;;;;;7.59;83.68;100003.63;6313880;20;3654465;-45
2022/03/16 11:04:47;;;;;;;;;85.00;69.00;;;;;7.89;84.22;100004.06;6290857;20;3643020;-47
2022/03/16 11:07:20;;;;;;;;;85.00;65.67;;;;;8.35;82.20;100011.78;6312192;20;3639406;-45
2022/03/16 11:09:49;;;;;;;;;84.67;67.00;;;;;8.00;82.79;100006.22;6276589;20;3655575;-46
2022/03/16 11:15:11;;;;;;;;;71.33;56.33;;;;;8.48;81.72;100023.66;6312320;20;3629444;-48
2022/03/16 11:17:41;;;;;;;;;67.67;53.33;;;;;8.13;82.27;100023.44;6311003;20;2883805;-45
2022/03/16 11:20:12;;;;;;;;;73.00;55.67;;;;;8.06;81.96;100030.03;6307338;20;3629422;-44
2022/03/16 11:26:29;;;;;;;;;79.00;59.33;;;;;8.03;81.97;100032.88;6309625;20;3650212;-44
2022/03/16 11:29:48;;;;;;;;;74.00;57.33;;;;;8.25;80.96;100037.22;6312218;20;3639874;-44
2022/03/16 11:32:20;;;;;;;;;76.33;60.00;;;;;7.98;81.97;100039.31;6306188;20;3629429;-44
2022/03/16 11:34:59;;;;;;;;;78.33;60.33;;;;;7.93;80.74;100044.91;6310872;20;3635829;-44
2022/03/16 11:37:48;;;;;;;;;84.67;64.00;;;;;8.27;79.54;100046.06;6312095;20;3645041;-44
2022/03/16 11:40:24;;;;;;;;;79.00;62.00;;;;;8.12;79.09;100043.13;6306485;20;3638378;-44
2022/03/16 11:43:08;;;;;;;;;73.00;57.00;;;;;7.85;80.32;100049.72;6310851;20;3631928;-45
2022/03/16 11:45:43;;;;;;;;;80.67;61.00;;;;;7.59;81.96;100048.19;6310591;20;3624240;-49